sensor_id;sensor_type;location;lat;lon;timestamp;P1;durP1;ratioP1;P2;durP2;ratioP2
4895;SDS011;2463;49.948;8.472;2022-07-23T00:00:13;91.50;;;6.53;;
4895;SDS011;2463;49.948;8.472;2022-07-23T00:02:40;90.97;;;6.70;;
4895;SDS011;2463;49.948;8.472;2022-07-23T00:05:07;90.67;;;5.83;;
4895;SDS011;2463;49.948;8.472;2022-07-23T00:07:35;92.67;;;6.93;;
4895;SDS011;2463;49.948;8.472;2022-07-23T00:10:02;92.10;;;7.70;;
4895;SDS011;2463;49.948;8.472;2022-07-23T00:12:29;95.17;;;7.43;;
4895;SDS011;2463;49.948;8.472;2022-07-23T00:14:56;92.20;;;6.80;;
4895;SDS011;2463;49.948;8.472;2022-07-23T00:17:23;92.20;;;7.00;;
4895;SDS011;2463;49.948;8.472;2022-07-23T00:19:49;91.17;;;6.60;;
4895;SDS011;2463;49.948;8.472;2022-07-23T00:22:16;94.03;;;7.20;;
4895;SDS011;2463;49.948;8.472;2022-07-23T00:24:43;91.77;;;7.40;;
4895;SDS011;2463;49.948;8.472;2022-07-23T00:27:29;94.27;;;7.33;;
4895;SDS011;2463;49.948;8.472;2022-07-23T00:29:57;90.90;;;6.90;;
4895;SDS011;2463;49.948;8.472;2022-07-23T00:32:23;91.73;;;6.90;;
4895;SDS011;2463;49.948;8.472;2022-07-23T00:35:10;92.40;;;6.87;;
4895;SDS011;2463;49.948;8.472;2022-07-23T00:37:37;91.50;;;7.40;;
4895;SDS011;2463;49.948;8.472;2022-07-23T00:40:03;93.37;;;6.67;;
4895;SDS011;2463;49.948;8.472;2022-07-23T00:42:31;91.17;;;6.83;;
4895;SDS011;2463;49.948;8.472;2022-07-23T00:44:58;93.90;;;7.80;;
4895;SDS011;2463;49.948;8.472;2022-07-23T00:47:25;92.50;;;6.87;;
4895;SDS011;2463;49.948;8.472;2022-07-23T00:49:52;92.83;;;7.10;;
4895;SDS011;2463;49.948;8.472;2022-07-23T00:52:19;93.80;;;7.37;;
4895;SDS011;2463;49.948;8.472;2022-07-23T00:54:45;91.77;;;7.47;;
4895;SDS011;2463;49.948;8.472;2022-07-23T00:57:13;92.77;;;7.13;;
4895;SDS011;2463;49.948;8.472;2022-07-23T00:59:40;92.30;;;7.23;;
4895;SDS011;2463;49.948;8.472;2022-07-23T01:02:07;92.33;;;7.50;;
4895;SDS011;2463;49.948;8.472;2022-07-23T01:04:34;93.40;;;7.83;;
4895;SDS011;2463;49.948;8.472;2022-07-23T01:07:00;93.20;;;7.80;;
4895;SDS011;2463;49.948;8.472;2022-07-23T01:09:27;93.07;;;7.40;;
4895;SDS011;2463;49.948;8.472;2022-07-23T01:11:55;92.50;;;7.50;;
4895;SDS011;2463;49.948;8.472;2022-07-23T01:14:23;94.67;;;8.20;;
4895;SDS011;2463;49.948;8.472;2022-07-23T01:16:50;95.00;;;7.73;;
4895;SDS011;2463;49.948;8.472;2022-07-23T01:19:17;94.33;;;7.70;;
4895;SDS011;2463;49.948;8.472;2022-07-23T01:21:46;94.57;;;8.00;;
4895;SDS011;2463;49.948;8.472;2022-07-23T01:24:14;95.60;;;8.23;;
4895;SDS011;2463;49.948;8.472;2022-07-23T01:26:45;95.53;;;7.57;;
4895;SDS011;2463;49.948;8.472;2022-07-23T01:29:13;94.97;;;7.27;;
4895;SDS011;2463;49.948;8.472;2022-07-23T01:31:41;106.20;;;8.57;;
4895;SDS011;2463;49.948;8.472;2022-07-23T01:34:09;99.70;;;8.87;;
4895;SDS011;2463;49.948;8.472;2022-07-23T01:36:36;94.60;;;7.80;;
4895;SDS011;2463;49.948;8.472;2022-07-23T01:39:04;98.03;;;8.00;;
4895;SDS011;2463;49.948;8.472;2022-07-23T01:41:31;101.43;;;9.10;;
4895;SDS011;2463;49.948;8.472;2022-07-23T01:44:00;94.70;;;7.80;;
4895;SDS011;2463;49.948;8.472;2022-07-23T01:46:27;94.37;;;7.50;;
4895;SDS011;2463;49.948;8.472;2022-07-23T01:48:54;95.77;;;8.87;;
4895;SDS011;2463;49.948;8.472;2022-07-23T01:51:21;93.90;;;8.00;;
4895;SDS011;2463;49.948;8.472;2022-07-23T01:53:48;94.87;;;8.70;;
4895;SDS011;2463;49.948;8.472;2022-07-23T01:56:14;94.13;;;8.33;;
4895;SDS011;2463;49.948;8.472;2022-07-23T01:58:41;98.20;;;9.00;;
4895;SDS011;2463;49.948;8.472;2022-07-23T02:01:08;94.77;;;8.50;;
4895;SDS011;2463;49.948;8.472;2022-07-23T02:03:35;98.97;;;8.70;;
4895;SDS011;2463;49.948;8.472;2022-07-23T02:06:01;97.77;;;9.40;;
4895;SDS011;2463;49.948;8.472;2022-07-23T02:08:28;98.50;;;8.60;;
4895;SDS011;2463;49.948;8.472;2022-07-23T02:10:55;96.20;;;8.40;;
4895;SDS011;2463;49.948;8.472;2022-07-23T02:13:21;97.80;;;9.10;;
4895;SDS011;2463;49.948;8.472;2022-07-23T02:15:48;94.57;;;7.90;;
4895;SDS011;2463;49.948;8.472;2022-07-23T02:18:15;95.30;;;8.50;;
4895;SDS011;2463;49.948;8.472;2022-07-23T02:20:42;95.73;;;8.40;;
4895;SDS011;2463;49.948;8.472;2022-07-23T02:23:10;97.87;;;8.83;;
4895;SDS011;2463;49.948;8.472;2022-07-23T02:25:37;94.67;;;8.07;;
4895;SDS011;2463;49.948;8.472;2022-07-23T02:28:05;96.40;;;8.40;;
4895;SDS011;2463;49.948;8.472;2022-07-23T02:30:32;95.87;;;8.77;;
4895;SDS011;2463;49.948;8.472;2022-07-23T02:32:59;97.60;;;8.90;;
4895;SDS011;2463;49.948;8.472;2022-07-23T02:35:25;100.40;;;8.10;;
4895;SDS011;2463;49.948;8.472;2022-07-23T02:37:52;98.80;;;9.07;;
4895;SDS011;2463;49.948;8.472;2022-07-23T02:40:19;96.27;;;8.83;;
4895;SDS011;2463;49.948;8.472;2022-07-23T02:42:46;103.77;;;9.30;;
4895;SDS011;2463;49.948;8.472;2022-07-23T02:45:12;103.17;;;9.33;;
4895;SDS011;2463;49.948;8.472;2022-07-23T02:47:39;97.07;;;8.83;;
4895;SDS011;2463;49.948;8.472;2022-07-23T02:50:06;98.10;;;8.67;;
4895;SDS011;2463;49.948;8.472;2022-07-23T02:52:34;95.87;;;8.47;;
4895;SDS011;2463;49.948;8.472;2022-07-23T02:55:00;99.00;;;8.90;;
4895;SDS011;2463;49.948;8.472;2022-07-23T02:57:27;96.07;;;8.37;;
4895;SDS011;2463;49.948;8.472;2022-07-23T02:59:54;97.17;;;9.63;;
4895;SDS011;2463;49.948;8.472;2022-07-23T03:02:21;96.47;;;9.20;;
4895;SDS011;2463;49.948;8.472;2022-07-23T03:04:48;99.10;;;8.90;;
4895;SDS011;2463;49.948;8.472;2022-07-23T03:07:16;97.10;;;9.40;;
4895;SDS011;2463;49.948;8.472;2022-07-23T03:09:44;98.97;;;9.13;;
4895;SDS011;2463;49.948;8.472;2022-07-23T03:12:10;98.93;;;9.33;;
4895;SDS011;2463;49.948;8.472;2022-07-23T03:14:39;99.03;;;8.93;;
4895;SDS011;2463;49.948;8.472;2022-07-23T03:17:07;95.90;;;8.83;;
4895;SDS011;2463;49.948;8.472;2022-07-23T03:19:34;96.60;;;8.37;;
4895;SDS011;2463;49.948;8.472;2022-07-23T03:22:01;100.37;;;9.30;;
4895;SDS011;2463;49.948;8.472;2022-07-23T03:24:28;95.57;;;8.47;;
4895;SDS011;2463;49.948;8.472;2022-07-23T03:27:13;97.90;;;9.30;;
4895;SDS011;2463;49.948;8.472;2022-07-23T03:29:40;95.70;;;8.30;;
4895;SDS011;2463;49.948;8.472;2022-07-23T03:32:07;98.50;;;9.83;;
4895;SDS011;2463;49.948;8.472;2022-07-23T03:34:34;94.50;;;8.17;;
4895;SDS011;2463;49.948;8.472;2022-07-23T03:37:00;98.70;;;9.33;;
4895;SDS011;2463;49.948;8.472;2022-07-23T03:39:28;94.93;;;8.50;;
4895;SDS011;2463;49.948;8.472;2022-07-23T03:41:55;96.60;;;8.27;;
4895;SDS011;2463;49.948;8.472;2022-07-23T03:44:22;97.03;;;8.50;;
4895;SDS011;2463;49.948;8.472;2022-07-23T03:46:49;98.60;;;8.70;;
4895;SDS011;2463;49.948;8.472;2022-07-23T03:49:16;98.80;;;8.80;;
4895;SDS011;2463;49.948;8.472;2022-07-23T03:51:42;96.50;;;8.80;;
4895;SDS011;2463;49.948;8.472;2022-07-23T03:54:09;94.80;;;8.60;;
4895;SDS011;2463;49.948;8.472;2022-07-23T03:56:36;99.37;;;8.90;;
4895;SDS011;2463;49.948;8.472;2022-07-23T03:59:03;97.33;;;9.77;;
4895;SDS011;2463;49.948;8.472;2022-07-23T04:01:30;101.07;;;9.60;;
4895;SDS011;2463;49.948;8.472;2022-07-23T04:03:57;96.80;;;8.60;;
4895;SDS011;2463;49.948;8.472;2022-07-23T04:06:24;95.57;;;9.10;;
4895;SDS011;2463;49.948;8.472;2022-07-23T04:08:51;105.10;;;9.80;;
4895;SDS011;2463;49.948;8.472;2022-07-23T04:11:17;96.00;;;9.10;;
4895;SDS011;2463;49.948;8.472;2022-07-23T04:13:44;99.20;;;9.50;;
4895;SDS011;2463;49.948;8.472;2022-07-23T04:16:11;95.60;;;8.30;;
4895;SDS011;2463;49.948;8.472;2022-07-23T04:18:38;97.17;;;9.23;;
4895;SDS011;2463;49.948;8.472;2022-07-23T04:21:05;96.87;;;8.50;;
4895;SDS011;2463;49.948;8.472;2022-07-23T04:23:32;102.07;;;9.47;;
4895;SDS011;2463;49.948;8.472;2022-07-23T04:25:58;97.30;;;8.77;;
4895;SDS011;2463;49.948;8.472;2022-07-23T04:28:25;99.27;;;8.57;;
4895;SDS011;2463;49.948;8.472;2022-07-23T04:30:52;98.87;;;9.30;;
4895;SDS011;2463;49.948;8.472;2022-07-23T04:33:18;103.47;;;10.03;;
4895;SDS011;2463;49.948;8.472;2022-07-23T04:35:45;96.80;;;8.87;;
4895;SDS011;2463;49.948;8.472;2022-07-23T04:38:12;97.40;;;9.43;;
4895;SDS011;2463;49.948;8.472;2022-07-23T04:40:39;96.60;;;9.00;;
4895;SDS011;2463;49.948;8.472;2022-07-23T04:43:05;96.90;;;8.73;;
4895;SDS011;2463;49.948;8.472;2022-07-23T04:45:32;97.27;;;9.30;;
4895;SDS011;2463;49.948;8.472;2022-07-23T04:47:59;94.90;;;7.80;;
4895;SDS011;2463;49.948;8.472;2022-07-23T04:50:26;96.17;;;9.30;;
4895;SDS011;2463;49.948;8.472;2022-07-23T04:52:52;97.97;;;8.97;;
4895;SDS011;2463;49.948;8.472;2022-07-23T04:55:19;97.37;;;9.73;;
4895;SDS011;2463;49.948;8.472;2022-07-23T04:57:46;96.80;;;9.50;;
4895;SDS011;2463;49.948;8.472;2022-07-23T05:00:13;97.80;;;9.07;;
4895;SDS011;2463;49.948;8.472;2022-07-23T05:02:40;97.40;;;8.70;;
4895;SDS011;2463;49.948;8.472;2022-07-23T05:05:06;102.67;;;9.20;;
4895;SDS011;2463;49.948;8.472;2022-07-23T05:07:33;99.07;;;9.03;;
4895;SDS011;2463;49.948;8.472;2022-07-23T05:10:00;101.30;;;9.20;;
4895;SDS011;2463;49.948;8.472;2022-07-23T05:12:27;98.60;;;8.87;;
4895;SDS011;2463;49.948;8.472;2022-07-23T05:14:53;95.40;;;9.00;;
4895;SDS011;2463;49.948;8.472;2022-07-23T05:17:20;97.57;;;9.53;;
4895;SDS011;2463;49.948;8.472;2022-07-23T05:19:47;96.87;;;10.30;;
4895;SDS011;2463;49.948;8.472;2022-07-23T05:22:14;97.60;;;9.17;;
4895;SDS011;2463;49.948;8.472;2022-07-23T05:24:40;96.30;;;8.40;;
4895;SDS011;2463;49.948;8.472;2022-07-23T05:27:09;96.20;;;8.70;;
4895;SDS011;2463;49.948;8.472;2022-07-23T05:29:35;95.57;;;9.00;;
4895;SDS011;2463;49.948;8.472;2022-07-23T05:32:03;95.60;;;9.23;;
4895;SDS011;2463;49.948;8.472;2022-07-23T05:34:29;97.57;;;9.37;;
4895;SDS011;2463;49.948;8.472;2022-07-23T05:36:56;96.50;;;9.40;;
4895;SDS011;2463;49.948;8.472;2022-07-23T05:39:23;99.90;;;9.70;;
4895;SDS011;2463;49.948;8.472;2022-07-23T05:41:49;98.27;;;9.30;;
4895;SDS011;2463;49.948;8.472;2022-07-23T05:44:16;96.47;;;9.67;;
4895;SDS011;2463;49.948;8.472;2022-07-23T05:46:43;97.77;;;9.30;;
4895;SDS011;2463;49.948;8.472;2022-07-23T05:49:10;94.37;;;8.77;;
4895;SDS011;2463;49.948;8.472;2022-07-23T05:51:37;96.37;;;9.43;;
4895;SDS011;2463;49.948;8.472;2022-07-23T05:54:04;95.17;;;8.33;;
4895;SDS011;2463;49.948;8.472;2022-07-23T05:56:30;97.30;;;9.00;;
4895;SDS011;2463;49.948;8.472;2022-07-23T05:58:57;97.20;;;9.40;;
4895;SDS011;2463;49.948;8.472;2022-07-23T06:01:24;97.37;;;9.43;;
4895;SDS011;2463;49.948;8.472;2022-07-23T06:03:51;95.27;;;8.90;;
4895;SDS011;2463;49.948;8.472;2022-07-23T06:06:18;97.10;;;9.10;;
4895;SDS011;2463;49.948;8.472;2022-07-23T06:08:44;99.40;;;9.67;;
4895;SDS011;2463;49.948;8.472;2022-07-23T06:11:11;95.27;;;9.40;;
4895;SDS011;2463;49.948;8.472;2022-07-23T06:13:38;97.07;;;10.17;;
4895;SDS011;2463;49.948;8.472;2022-07-23T06:16:05;96.77;;;9.13;;
4895;SDS011;2463;49.948;8.472;2022-07-23T06:18:31;94.40;;;8.90;;
4895;SDS011;2463;49.948;8.472;2022-07-23T06:20:58;96.03;;;9.03;;
4895;SDS011;2463;49.948;8.472;2022-07-23T06:23:26;97.60;;;9.50;;
4895;SDS011;2463;49.948;8.472;2022-07-23T06:25:52;94.30;;;9.10;;
4895;SDS011;2463;49.948;8.472;2022-07-23T06:28:19;93.97;;;9.03;;
4895;SDS011;2463;49.948;8.472;2022-07-23T06:30:46;93.80;;;8.33;;
4895;SDS011;2463;49.948;8.472;2022-07-23T06:33:13;97.30;;;8.07;;
4895;SDS011;2463;49.948;8.472;2022-07-23T06:35:39;92.47;;;8.23;;
4895;SDS011;2463;49.948;8.472;2022-07-23T06:38:07;91.37;;;7.60;;
4895;SDS011;2463;49.948;8.472;2022-07-23T06:40:33;92.47;;;7.50;;
4895;SDS011;2463;49.948;8.472;2022-07-23T06:43:00;88.17;;;7.23;;
4895;SDS011;2463;49.948;8.472;2022-07-23T06:45:27;87.87;;;7.27;;
4895;SDS011;2463;49.948;8.472;2022-07-23T06:47:54;88.30;;;6.73;;
4895;SDS011;2463;49.948;8.472;2022-07-23T06:50:20;85.33;;;5.87;;
4895;SDS011;2463;49.948;8.472;2022-07-23T06:52:47;83.87;;;5.13;;
4895;SDS011;2463;49.948;8.472;2022-07-23T06:55:14;86.37;;;5.93;;
4895;SDS011;2463;49.948;8.472;2022-07-23T06:57:41;84.33;;;6.00;;
4895;SDS011;2463;49.948;8.472;2022-07-23T07:00:08;85.87;;;6.00;;
4895;SDS011;2463;49.948;8.472;2022-07-23T07:02:35;85.70;;;5.50;;
4895;SDS011;2463;49.948;8.472;2022-07-23T07:05:02;84.10;;;5.60;;
4895;SDS011;2463;49.948;8.472;2022-07-23T07:07:31;81.80;;;5.10;;
4895;SDS011;2463;49.948;8.472;2022-07-23T07:09:58;82.30;;;5.27;;
4895;SDS011;2463;49.948;8.472;2022-07-23T07:12:25;82.27;;;5.40;;
4895;SDS011;2463;49.948;8.472;2022-07-23T07:14:52;84.30;;;5.90;;
4895;SDS011;2463;49.948;8.472;2022-07-23T07:17:19;81.73;;;5.80;;
4895;SDS011;2463;49.948;8.472;2022-07-23T07:19:46;82.67;;;5.30;;
4895;SDS011;2463;49.948;8.472;2022-07-23T07:22:13;81.87;;;5.83;;
4895;SDS011;2463;49.948;8.472;2022-07-23T07:24:39;86.67;;;5.40;;
4895;SDS011;2463;49.948;8.472;2022-07-23T07:27:06;83.33;;;5.80;;
4895;SDS011;2463;49.948;8.472;2022-07-23T07:29:33;84.77;;;6.10;;
4895;SDS011;2463;49.948;8.472;2022-07-23T07:32:00;87.80;;;6.47;;
4895;SDS011;2463;49.948;8.472;2022-07-23T07:34:26;85.60;;;6.33;;
4895;SDS011;2463;49.948;8.472;2022-07-23T07:36:53;87.10;;;6.47;;
4895;SDS011;2463;49.948;8.472;2022-07-23T07:39:20;85.37;;;6.30;;
4895;SDS011;2463;49.948;8.472;2022-07-23T07:41:46;86.43;;;7.10;;
4895;SDS011;2463;49.948;8.472;2022-07-23T07:44:13;88.20;;;7.10;;
4895;SDS011;2463;49.948;8.472;2022-07-23T07:46:40;85.90;;;6.30;;
4895;SDS011;2463;49.948;8.472;2022-07-23T07:49:07;89.53;;;7.27;;
4895;SDS011;2463;49.948;8.472;2022-07-23T07:51:40;86.47;;;6.73;;
4895;SDS011;2463;49.948;8.472;2022-07-23T07:54:07;86.27;;;6.03;;
4895;SDS011;2463;49.948;8.472;2022-07-23T07:56:34;86.57;;;6.30;;
4895;SDS011;2463;49.948;8.472;2022-07-23T07:59:01;87.07;;;6.60;;
4895;SDS011;2463;49.948;8.472;2022-07-23T08:01:28;85.30;;;5.70;;
4895;SDS011;2463;49.948;8.472;2022-07-23T08:03:55;86.60;;;6.40;;
4895;SDS011;2463;49.948;8.472;2022-07-23T08:06:22;87.80;;;5.83;;
4895;SDS011;2463;49.948;8.472;2022-07-23T08:08:48;85.27;;;6.00;;
4895;SDS011;2463;49.948;8.472;2022-07-23T08:11:15;86.17;;;6.30;;
4895;SDS011;2463;49.948;8.472;2022-07-23T08:13:42;85.77;;;6.37;;
4895;SDS011;2463;49.948;8.472;2022-07-23T08:16:11;90.27;;;7.10;;
4895;SDS011;2463;49.948;8.472;2022-07-23T08:18:38;87.07;;;5.87;;
4895;SDS011;2463;49.948;8.472;2022-07-23T08:21:05;85.87;;;6.07;;
4895;SDS011;2463;49.948;8.472;2022-07-23T08:23:32;87.57;;;6.00;;
4895;SDS011;2463;49.948;8.472;2022-07-23T08:25:58;85.70;;;5.63;;
4895;SDS011;2463;49.948;8.472;2022-07-23T08:28:25;86.57;;;5.57;;
4895;SDS011;2463;49.948;8.472;2022-07-23T08:30:52;87.67;;;6.70;;
4895;SDS011;2463;49.948;8.472;2022-07-23T08:33:19;84.80;;;5.60;;
4895;SDS011;2463;49.948;8.472;2022-07-23T08:35:58;84.70;;;6.30;;
4895;SDS011;2463;49.948;8.472;2022-07-23T08:38:26;86.90;;;5.80;;
4895;SDS011;2463;49.948;8.472;2022-07-23T08:40:53;83.93;;;5.20;;
4895;SDS011;2463;49.948;8.472;2022-07-23T08:43:28;84.70;;;6.00;;
4895;SDS011;2463;49.948;8.472;2022-07-23T08:45:57;86.97;;;6.57;;
4895;SDS011;2463;49.948;8.472;2022-07-23T08:48:27;84.47;;;5.53;;
4895;SDS011;2463;49.948;8.472;2022-07-23T08:50:57;89.17;;;6.83;;
4895;SDS011;2463;49.948;8.472;2022-07-23T08:53:27;85.03;;;5.63;;
4895;SDS011;2463;49.948;8.472;2022-07-23T08:55:58;87.83;;;6.10;;
4895;SDS011;2463;49.948;8.472;2022-07-23T08:58:29;88.93;;;6.20;;
4895;SDS011;2463;49.948;8.472;2022-07-23T09:00:57;83.30;;;5.33;;
4895;SDS011;2463;49.948;8.472;2022-07-23T09:03:25;85.90;;;6.53;;
4895;SDS011;2463;49.948;8.472;2022-07-23T09:05:57;86.13;;;6.10;;
4895;SDS011;2463;49.948;8.472;2022-07-23T09:08:27;85.23;;;6.10;;
4895;SDS011;2463;49.948;8.472;2022-07-23T09:11:02;84.47;;;6.00;;
4895;SDS011;2463;49.948;8.472;2022-07-23T09:13:31;85.20;;;6.50;;
4895;SDS011;2463;49.948;8.472;2022-07-23T09:16:19;83.97;;;5.90;;
4895;SDS011;2463;49.948;8.472;2022-07-23T09:18:52;84.60;;;6.60;;
4895;SDS011;2463;49.948;8.472;2022-07-23T09:21:24;83.40;;;5.63;;
4895;SDS011;2463;49.948;8.472;2022-07-23T09:24:04;82.97;;;5.40;;
4895;SDS011;2463;49.948;8.472;2022-07-23T09:26:39;84.50;;;6.07;;
4895;SDS011;2463;49.948;8.472;2022-07-23T09:29:13;84.40;;;5.83;;
4895;SDS011;2463;49.948;8.472;2022-07-23T09:31:55;84.17;;;6.00;;
4895;SDS011;2463;49.948;8.472;2022-07-23T09:34:26;84.00;;;6.17;;
4895;SDS011;2463;49.948;8.472;2022-07-23T09:36:54;82.57;;;5.20;;
4895;SDS011;2463;49.948;8.472;2022-07-23T09:41:57;83.13;;;5.70;;
4895;SDS011;2463;49.948;8.472;2022-07-23T09:44:41;85.07;;;6.03;;
4895;SDS011;2463;49.948;8.472;2022-07-23T09:47:09;87.83;;;6.80;;
4895;SDS011;2463;49.948;8.472;2022-07-23T09:49:36;84.70;;;6.53;;
4895;SDS011;2463;49.948;8.472;2022-07-23T09:52:03;88.70;;;6.50;;
4895;SDS011;2463;49.948;8.472;2022-07-23T09:54:32;86.57;;;6.33;;
4895;SDS011;2463;49.948;8.472;2022-07-23T09:57:12;85.07;;;5.93;;
4895;SDS011;2463;49.948;8.472;2022-07-23T09:59:42;84.60;;;6.13;;
4895;SDS011;2463;49.948;8.472;2022-07-23T10:02:10;85.20;;;6.90;;
4895;SDS011;2463;49.948;8.472;2022-07-23T10:04:41;84.07;;;6.93;;
4895;SDS011;2463;49.948;8.472;2022-07-23T10:07:09;84.47;;;6.53;;
4895;SDS011;2463;49.948;8.472;2022-07-23T10:09:38;86.03;;;6.00;;
4895;SDS011;2463;49.948;8.472;2022-07-23T10:12:12;82.40;;;6.50;;
4895;SDS011;2463;49.948;8.472;2022-07-23T10:15:00;85.27;;;6.10;;
4895;SDS011;2463;49.948;8.472;2022-07-23T10:17:27;82.63;;;5.90;;
4895;SDS011;2463;49.948;8.472;2022-07-23T10:19:54;82.37;;;6.03;;
4895;SDS011;2463;49.948;8.472;2022-07-23T10:22:25;83.17;;;5.87;;
4895;SDS011;2463;49.948;8.472;2022-07-23T10:24:58;84.87;;;6.13;;
4895;SDS011;2463;49.948;8.472;2022-07-23T10:30:25;82.07;;;5.70;;
4895;SDS011;2463;49.948;8.472;2022-07-23T10:40:58;84.67;;;6.00;;
4895;SDS011;2463;49.948;8.472;2022-07-23T10:43:29;84.40;;;6.30;;
4895;SDS011;2463;49.948;8.472;2022-07-23T10:49:27;84.60;;;6.27;;
4895;SDS011;2463;49.948;8.472;2022-07-23T10:54:40;83.17;;;5.43;;
4895;SDS011;2463;49.948;8.472;2022-07-23T10:57:08;81.03;;;5.60;;
4895;SDS011;2463;49.948;8.472;2022-07-23T11:02:48;79.67;;;4.70;;
4895;SDS011;2463;49.948;8.472;2022-07-23T11:05:18;80.37;;;4.57;;
4895;SDS011;2463;49.948;8.472;2022-07-23T11:10:40;80.67;;;5.40;;
4895;SDS011;2463;49.948;8.472;2022-07-23T11:31:56;80.70;;;5.27;;
4895;SDS011;2463;49.948;8.472;2022-07-23T11:34:32;83.77;;;5.90;;
4895;SDS011;2463;49.948;8.472;2022-07-23T11:37:02;81.07;;;5.10;;
4895;SDS011;2463;49.948;8.472;2022-07-23T11:39:30;84.20;;;5.10;;
4895;SDS011;2463;49.948;8.472;2022-07-23T11:41:58;81.50;;;5.20;;
4895;SDS011;2463;49.948;8.472;2022-07-23T11:44:26;80.60;;;4.90;;
4895;SDS011;2463;49.948;8.472;2022-07-23T11:46:57;81.20;;;5.00;;
4895;SDS011;2463;49.948;8.472;2022-07-23T11:49:30;81.00;;;4.83;;
4895;SDS011;2463;49.948;8.472;2022-07-23T11:54:35;79.57;;;5.10;;
4895;SDS011;2463;49.948;8.472;2022-07-23T11:57:12;80.33;;;5.53;;
4895;SDS011;2463;49.948;8.472;2022-07-23T11:59:39;78.47;;;4.33;;
4895;SDS011;2463;49.948;8.472;2022-07-23T12:02:07;79.37;;;5.20;;
4895;SDS011;2463;49.948;8.472;2022-07-23T12:04:44;80.90;;;4.20;;
4895;SDS011;2463;49.948;8.472;2022-07-23T12:10:12;80.57;;;5.53;;
4895;SDS011;2463;49.948;8.472;2022-07-23T12:12:43;81.90;;;5.43;;
4895;SDS011;2463;49.948;8.472;2022-07-23T12:15:22;79.80;;;5.00;;
4895;SDS011;2463;49.948;8.472;2022-07-23T12:17:55;82.47;;;5.30;;
4895;SDS011;2463;49.948;8.472;2022-07-23T12:20:26;80.50;;;4.90;;
4895;SDS011;2463;49.948;8.472;2022-07-23T12:22:58;81.17;;;5.00;;
4895;SDS011;2463;49.948;8.472;2022-07-23T12:25:31;80.73;;;5.33;;
4895;SDS011;2463;49.948;8.472;2022-07-23T12:28:06;79.77;;;5.50;;
4895;SDS011;2463;49.948;8.472;2022-07-23T12:30:39;84.87;;;5.43;;
4895;SDS011;2463;49.948;8.472;2022-07-23T12:33:09;81.00;;;5.83;;
4895;SDS011;2463;49.948;8.472;2022-07-23T12:35:39;81.07;;;5.83;;
4895;SDS011;2463;49.948;8.472;2022-07-23T12:38:11;80.73;;;5.30;;
4895;SDS011;2463;49.948;8.472;2022-07-23T12:40:42;83.07;;;5.83;;
4895;SDS011;2463;49.948;8.472;2022-07-23T12:43:24;82.30;;;5.07;;
4895;SDS011;2463;49.948;8.472;2022-07-23T12:48:30;82.10;;;5.93;;
4895;SDS011;2463;49.948;8.472;2022-07-23T12:51:08;80.97;;;5.47;;
4895;SDS011;2463;49.948;8.472;2022-07-23T12:53:48;81.97;;;5.80;;
4895;SDS011;2463;49.948;8.472;2022-07-23T12:56:27;83.27;;;6.73;;
4895;SDS011;2463;49.948;8.472;2022-07-23T13:01:35;83.07;;;5.70;;
4895;SDS011;2463;49.948;8.472;2022-07-23T13:04:07;82.73;;;5.63;;
4895;SDS011;2463;49.948;8.472;2022-07-23T13:06:43;82.80;;;6.00;;
4895;SDS011;2463;49.948;8.472;2022-07-23T13:09:18;83.27;;;5.50;;
4895;SDS011;2463;49.948;8.472;2022-07-23T13:11:48;84.60;;;5.97;;
4895;SDS011;2463;49.948;8.472;2022-07-23T13:14:16;82.80;;;6.20;;
4895;SDS011;2463;49.948;8.472;2022-07-23T13:16:46;84.33;;;6.33;;
4895;SDS011;2463;49.948;8.472;2022-07-23T13:19:14;81.87;;;5.10;;
4895;SDS011;2463;49.948;8.472;2022-07-23T13:21:44;82.97;;;5.80;;
4895;SDS011;2463;49.948;8.472;2022-07-23T13:24:12;81.60;;;5.17;;
4895;SDS011;2463;49.948;8.472;2022-07-23T13:26:39;80.67;;;4.80;;
4895;SDS011;2463;49.948;8.472;2022-07-23T13:29:06;84.00;;;5.60;;
4895;SDS011;2463;49.948;8.472;2022-07-23T13:31:36;81.07;;;5.33;;
4895;SDS011;2463;49.948;8.472;2022-07-23T13:34:04;81.27;;;5.37;;
4895;SDS011;2463;49.948;8.472;2022-07-23T13:36:51;81.97;;;5.60;;
4895;SDS011;2463;49.948;8.472;2022-07-23T13:39:19;84.43;;;6.43;;
4895;SDS011;2463;49.948;8.472;2022-07-23T13:41:46;84.17;;;6.30;;
4895;SDS011;2463;49.948;8.472;2022-07-23T13:44:16;81.07;;;5.13;;
4895;SDS011;2463;49.948;8.472;2022-07-23T13:46:45;79.67;;;4.90;;
4895;SDS011;2463;49.948;8.472;2022-07-23T13:49:13;82.57;;;5.27;;
4895;SDS011;2463;49.948;8.472;2022-07-23T13:51:40;81.47;;;5.50;;
4895;SDS011;2463;49.948;8.472;2022-07-23T13:54:07;81.50;;;6.07;;
4895;SDS011;2463;49.948;8.472;2022-07-23T13:56:34;80.67;;;5.20;;
4895;SDS011;2463;49.948;8.472;2022-07-23T13:59:02;83.47;;;5.87;;
4895;SDS011;2463;49.948;8.472;2022-07-23T14:01:32;82.07;;;5.40;;
4895;SDS011;2463;49.948;8.472;2022-07-23T14:04:11;82.47;;;5.03;;
4895;SDS011;2463;49.948;8.472;2022-07-23T14:06:38;81.87;;;5.80;;
4895;SDS011;2463;49.948;8.472;2022-07-23T14:09:04;82.43;;;5.37;;
4895;SDS011;2463;49.948;8.472;2022-07-23T14:11:33;81.93;;;5.53;;
4895;SDS011;2463;49.948;8.472;2022-07-23T14:14:00;81.47;;;6.00;;
4895;SDS011;2463;49.948;8.472;2022-07-23T14:16:28;85.60;;;5.70;;
4895;SDS011;2463;49.948;8.472;2022-07-23T14:18:55;82.50;;;5.90;;
4895;SDS011;2463;49.948;8.472;2022-07-23T14:21:21;84.07;;;6.10;;
4895;SDS011;2463;49.948;8.472;2022-07-23T14:23:48;82.30;;;6.07;;
4895;SDS011;2463;49.948;8.472;2022-07-23T14:26:15;81.60;;;5.30;;
4895;SDS011;2463;49.948;8.472;2022-07-23T14:28:42;80.97;;;5.30;;
4895;SDS011;2463;49.948;8.472;2022-07-23T14:31:09;82.00;;;5.40;;
4895;SDS011;2463;49.948;8.472;2022-07-23T14:33:46;81.67;;;5.47;;
4895;SDS011;2463;49.948;8.472;2022-07-23T14:36:13;86.17;;;5.93;;
4895;SDS011;2463;49.948;8.472;2022-07-23T14:38:41;85.03;;;5.53;;
4895;SDS011;2463;49.948;8.472;2022-07-23T14:41:08;81.53;;;5.10;;
4895;SDS011;2463;49.948;8.472;2022-07-23T14:43:36;81.57;;;5.30;;
4895;SDS011;2463;49.948;8.472;2022-07-23T14:46:04;82.50;;;6.17;;
4895;SDS011;2463;49.948;8.472;2022-07-23T14:48:31;82.47;;;6.03;;
4895;SDS011;2463;49.948;8.472;2022-07-23T14:50:58;82.20;;;5.57;;
4895;SDS011;2463;49.948;8.472;2022-07-23T14:53:24;81.60;;;5.77;;
4895;SDS011;2463;49.948;8.472;2022-07-23T14:55:51;81.70;;;5.80;;
4895;SDS011;2463;49.948;8.472;2022-07-23T14:58:20;82.47;;;5.53;;
4895;SDS011;2463;49.948;8.472;2022-07-23T15:00:47;81.17;;;5.10;;
4895;SDS011;2463;49.948;8.472;2022-07-23T15:03:14;83.93;;;6.33;;
4895;SDS011;2463;49.948;8.472;2022-07-23T15:05:41;85.03;;;5.50;;
4895;SDS011;2463;49.948;8.472;2022-07-23T15:08:08;83.00;;;5.40;;
4895;SDS011;2463;49.948;8.472;2022-07-23T15:10:35;84.50;;;6.23;;
4895;SDS011;2463;49.948;8.472;2022-07-23T15:13:03;82.77;;;5.90;;
4895;SDS011;2463;49.948;8.472;2022-07-23T15:15:30;84.17;;;6.27;;
4895;SDS011;2463;49.948;8.472;2022-07-23T15:17:57;84.60;;;6.57;;
4895;SDS011;2463;49.948;8.472;2022-07-23T15:20:24;84.97;;;6.27;;
4895;SDS011;2463;49.948;8.472;2022-07-23T15:23:06;84.80;;;5.77;;
4895;SDS011;2463;49.948;8.472;2022-07-23T15:25:35;82.87;;;6.00;;
4895;SDS011;2463;49.948;8.472;2022-07-23T15:28:03;86.53;;;6.10;;
4895;SDS011;2463;49.948;8.472;2022-07-23T15:30:33;84.20;;;6.33;;
4895;SDS011;2463;49.948;8.472;2022-07-23T15:33:02;84.50;;;6.07;;
4895;SDS011;2463;49.948;8.472;2022-07-23T15:35:30;84.37;;;5.37;;
4895;SDS011;2463;49.948;8.472;2022-07-23T15:37:57;84.20;;;6.27;;
4895;SDS011;2463;49.948;8.472;2022-07-23T15:40:24;84.10;;;5.73;;
4895;SDS011;2463;49.948;8.472;2022-07-23T15:42:52;85.30;;;6.07;;
4895;SDS011;2463;49.948;8.472;2022-07-23T15:45:18;91.20;;;6.03;;
4895;SDS011;2463;49.948;8.472;2022-07-23T15:47:46;84.30;;;5.70;;
4895;SDS011;2463;49.948;8.472;2022-07-23T15:50:15;84.30;;;6.30;;
4895;SDS011;2463;49.948;8.472;2022-07-23T15:52:41;83.17;;;6.13;;
4895;SDS011;2463;49.948;8.472;2022-07-23T15:55:10;84.30;;;5.70;;
4895;SDS011;2463;49.948;8.472;2022-07-23T15:57:42;88.57;;;6.70;;
4895;SDS011;2463;49.948;8.472;2022-07-23T16:00:10;83.30;;;5.40;;
4895;SDS011;2463;49.948;8.472;2022-07-23T16:02:37;83.43;;;5.43;;